Time;durP1;ratioP1;P1;durP2;ratioP2;P2;SDS_P1;SDS_P2;PMS_P1;PMS_P2;Temp;Humidity;BMP_temperature;BMP_pressure;BME280_temperature;BME280_humidity;BME280_pressure;Samples;Min_cycle;Max_cycle;Signal;HPM_P1;HPM_P2
2021/04/05 00:00:26;;;;;;;10.77;4.67;;;7.40;79.90;;;;;;5019175;28;20140;-68
2021/04/05 00:02:53;;;;;;;11.40;5.07;;;7.50;79.90;;;;;;5017920;28;20060;-68
2021/04/05 00:05:21;;;;;;;;;;;7.50;79.80;;;;;;5020234;28;20030;-69
2021/04/05 00:07:48;;;;;;;11.93;4.60;;;7.50;79.60;;;;;;5020540;28;20350;-68
2021/04/05 00:10:19;;;;;;;11.13;4.72;;;7.60;79.60;;;;;;5016684;28;20072;-68
2021/04/05 00:12:45;;;;;;;10.65;4.80;;;7.60;79.60;;;;;;5017819;28;20026;-68
2021/04/05 00:15:11;;;;;;;12.15;4.90;;;7.60;79.60;;;;;;5017531;28;20102;-68
2021/04/05 00:17:39;;;;;;;11.05;4.57;;;7.60;79.60;;;;;;5017771;28;20084;-68
2021/04/05 00:20:14;;;;;;;14.23;4.47;;;7.60;79.80;;;;;;5018164;28;20040;-68
2021/04/05 00:22:44;;;;;;;11.10;4.18;;;7.60;80.00;;;;;;5017555;28;20383;-68
2021/04/05 00:25:10;;;;;;;9.90;4.30;;;7.60;80.10;;;;;;5018308;28;20076;-68
2021/04/05 00:27:37;;;;;;;9.57;4.35;;;7.60;80.40;;;;;;5017558;28;20061;-68
2021/04/05 00:30:18;;;;;;;10.60;4.25;;;7.60;80.50;;;;;;5021107;28;20117;-69
2021/04/05 00:32:47;;;;;;;9.40;4.07;;;7.50;80.90;;;;;;5019620;28;20028;-68
2021/04/05 00:35:16;;;;;;;9.40;3.88;;;7.50;81.50;;;;;;5018767;28;20028;-68
2021/04/05 00:37:42;;;;;;;13.10;4.20;;;7.50;81.70;;;;;;5021671;28;20041;-68
2021/04/05 00:40:09;;;;;;;9.87;4.27;;;7.40;81.80;;;;;;5026636;28;20041;-69
2021/04/05 00:42:37;;;;;;;13.45;4.68;;;7.40;82.30;;;;;;5019074;28;20038;-69
2021/04/05 00:45:08;;;;;;;7.75;4.18;;;7.40;82.30;;;;;;5016843;28;20033;-67
2021/04/05 00:47:36;;;;;;;9.27;4.00;;;7.40;82.50;;;;;;5019066;28;20037;-69
2021/04/05 00:50:11;;;;;;;8.32;3.88;;;7.40;82.60;;;;;;5017432;28;20033;-68
2021/04/05 00:52:37;;;;;;;6.88;3.80;;;7.40;82.80;;;;;;5018083;28;20025;-68
2021/04/05 00:55:08;;;;;;;7.90;3.80;;;7.40;82.90;;;;;;5018822;28;20125;-68
2021/04/05 00:57:35;;;;;;;9.77;4.70;;;7.40;83.10;;;;;;5018430;28;20109;-68
2021/04/05 01:00:11;;;;;;;7.65;4.00;;;7.30;83.00;;;;;;5016613;28;20045;-68
2021/04/05 01:02:37;;;;;;;6.43;3.70;;;7.30;83.50;;;;;;5014642;28;20125;-68
2021/04/05 01:05:03;;;;;;;9.53;4.20;;;7.30;83.70;;;;;;5017232;28;20456;-68
2021/04/05 01:07:29;;;;;;;8.73;3.70;;;7.20;84.00;;;;;;5015570;28;20030;-68
2021/04/05 01:09:55;;;;;;;12.03;4.40;;;7.20;84.30;;;;;;5015848;28;20481;-68
2021/04/05 01:12:20;;;;;;;9.50;4.00;;;7.20;84.60;;;;;;5014789;28;20026;-68
2021/04/05 01:14:46;;;;;;;8.87;3.67;;;7.20;84.90;;;;;;5016647;28;20053;-68
2021/04/05 01:17:11;;;;;;;14.20;4.30;;;7.20;84.90;;;;;;5016323;28;20022;-68
2021/04/05 01:19:37;;;;;;;11.57;4.60;;;7.20;84.90;;;;;;5016220;28;20026;-68
2021/04/05 01:22:03;;;;;;;7.30;4.17;;;7.10;85.20;;;;;;5014650;28;20269;-69
2021/04/05 01:24:29;;;;;;;9.63;4.28;;;7.10;85.50;;;;;;5015164;28;20057;-68
2021/04/05 01:26:54;;;;;;;11.48;4.32;;;7.10;85.80;;;;;;5013920;28;20026;-68
2021/04/05 01:29:20;;;;;;;9.00;4.63;;;7.10;85.80;;;;;;5015121;28;20475;-69
2021/04/05 01:31:45;;;;;;;11.10;4.40;;;7.10;85.90;;;;;;5015544;28;20033;-68
2021/04/05 01:34:11;;;;;;;7.47;4.20;;;7.10;86.00;;;;;;5014965;28;20053;-67
2021/04/05 01:36:37;;;;;;;7.47;4.33;;;7.10;86.10;;;;;;5015144;28;20445;-68
2021/04/05 01:39:03;;;;;;;9.23;4.20;;;7.10;86.40;;;;;;5015187;28;20032;-67
2021/04/05 01:41:30;;;;;;;8.90;4.20;;;7.10;86.70;;;;;;5013715;28;20026;-68
2021/04/05 01:43:56;;;;;;;15.88;4.55;;;7.00;87.10;;;;;;5014943;28;20057;-68
2021/04/05 01:46:23;;;;;;;9.82;4.75;;;7.00;87.50;;;;;;5013797;28;20059;-68
2021/04/05 01:48:49;;;;;;;8.35;3.83;;;7.00;88.00;;;;;;5015023;28;20030;-69
2021/04/05 01:51:17;;;;;;;7.82;4.20;;;6.90;88.50;;;;;;5015065;28;20025;-68
2021/04/05 01:53:44;;;;;;;8.20;4.40;;;6.90;88.80;;;;;;5013395;28;20507;-69
2021/04/05 01:56:12;;;;;;;12.27;4.43;;;6.90;89.30;;;;;;5014794;28;20026;-69
2021/04/05 01:58:40;;;;;;;11.65;4.43;;;6.90;89.60;;;;;;5013166;28;20434;-68
2021/04/05 02:01:11;;;;;;;10.13;4.00;;;6.90;89.70;;;;;;5014826;28;20125;-68
2021/04/05 02:03:38;;;;;;;9.30;4.10;;;6.90;90.00;;;;;;5014462;28;20037;-68
2021/04/05 02:06:12;;;;;;;10.43;4.70;;;6.90;90.00;;;;;;5014359;28;20052;-69
2021/04/05 02:08:39;;;;;;;10.50;4.03;;;6.90;90.10;;;;;;5013410;28;20100;-68
2021/04/05 02:11:11;;;;;;;7.95;4.07;;;6.90;90.10;;;;;;5014616;28;20022;-68
2021/04/05 02:13:37;;;;;;;11.93;4.38;;;6.80;90.30;;;;;;5014187;28;20025;-69
2021/04/05 02:16:04;;;;;;;7.20;4.20;;;6.80;90.60;;;;;;5014296;28;20101;-68
2021/04/05 02:18:30;;;;;;;11.63;4.70;;;6.80;90.50;;;;;;5014279;28;20030;-68
2021/04/05 02:20:56;;;;;;;8.40;4.55;;;6.80;90.70;;;;;;5014680;28;20026;-68
2021/04/05 02:23:25;;;;;;;14.15;4.75;;;6.70;90.80;;;;;;5013096;28;20057;-68
2021/04/05 02:26:07;;;;;;;12.13;4.20;;;6.70;91.00;;;;;;5012826;28;20451;-68
2021/04/05 02:28:44;;;;;;;8.65;4.70;;;6.70;91.00;;;;;;5014318;28;20057;-68
2021/04/05 02:31:12;;;;;;;11.38;4.72;;;6.70;91.10;;;;;;5012981;28;20029;-68
2021/04/05 02:33:39;;;;;;;11.20;4.70;;;6.60;91.20;;;;;;5012811;28;20032;-68
2021/04/05 02:36:09;;;;;;;12.35;5.63;;;6.60;91.40;;;;;;5014536;28;20114;-68
2021/04/05 02:38:39;;;;;;;15.27;4.97;;;6.60;91.50;;;;;;5015414;28;20073;-68
2021/04/05 02:41:07;;;;;;;7.97;4.05;;;6.60;91.40;;;;;;5014414;28;20041;-68
2021/04/05 02:43:34;;;;;;;7.88;4.50;;;6.60;91.50;;;;;;5016016;28;20057;-68
2021/04/05 02:46:01;;;;;;;10.48;4.30;;;6.50;91.60;;;;;;5015774;28;20022;-68
2021/04/05 02:48:29;;;;;;;11.55;4.68;;;6.60;91.60;;;;;;5016128;28;20097;-68
2021/04/05 02:50:55;;;;;;;13.13;4.63;;;6.60;91.70;;;;;;5015678;28;20025;-68
2021/04/05 02:53:21;;;;;;;9.68;4.60;;;6.60;91.80;;;;;;5014967;28;20073;-68
2021/04/05 02:55:47;;;;;;;;;;;6.60;91.90;;;;;;5014409;28;20026;-68
2021/04/05 02:58:13;;;;;;;13.13;5.20;;;6.60;92.00;;;;;;5014068;28;19905;-67
2021/04/05 03:00:39;;;;;;;8.52;4.45;;;6.60;92.10;;;;;;5013323;28;20038;-68
2021/04/05 03:03:05;;;;;;;10.43;4.63;;;6.70;92.10;;;;;;5013889;28;20105;-68
2021/04/05 03:05:32;;;;;;;12.48;4.38;;;6.70;92.10;;;;;;5013882;28;20390;-68
2021/04/05 03:07:57;;;;;;;;;;;6.70;91.90;;;;;;5013993;28;20438;-68
2021/04/05 03:10:27;;;;;;;11.95;4.25;;;6.70;92.10;;;;;;5013425;28;19927;-68
2021/04/05 03:12:57;;;;;;;15.82;4.57;;;6.70;92.20;;;;;;5013964;28;20026;-68
2021/04/05 03:15:24;;;;;;;11.85;4.82;;;6.70;92.20;;;;;;5014022;28;20097;-68
2021/04/05 03:18:01;;;;;;;10.82;4.32;;;6.60;92.30;;;;;;5013792;28;20026;-69
2021/04/05 03:20:33;;;;;;;12.07;4.40;;;6.60;92.50;;;;;;5013743;28;20065;-68
2021/04/05 03:23:01;;;;;;;10.95;4.97;;;6.60;92.60;;;;;;5013402;28;20116;-69
2021/04/05 03:25:27;;;;;;;11.60;4.60;;;6.60;92.80;;;;;;5014215;28;20049;-68
2021/04/05 03:27:53;;;;;;;11.93;5.70;;;6.60;92.90;;;;;;5015919;28;20087;-68
2021/04/05 03:30:26;;;;;;;15.68;4.82;;;6.60;92.90;;;;;;5017235;28;20034;-68
2021/04/05 03:32:58;;;;;;;11.57;4.95;;;6.50;92.90;;;;;;5017497;28;20072;-68
2021/04/05 03:35:33;;;;;;;16.50;5.68;;;6.50;93.10;;;;;;5016225;28;20033;-67
2021/04/05 03:38:00;;;;;;;14.10;5.57;;;6.50;93.10;;;;;;5017135;28;20072;-68
2021/04/05 03:40:27;;;;;;;16.27;5.40;;;6.50;93.20;;;;;;5017669;28;20026;-67
2021/04/05 03:43:23;;;;;;;14.27;6.50;;;6.50;93.40;;;;;;5017357;28;20042;-67
2021/04/05 03:45:59;;;;;;;16.95;6.25;;;6.50;93.50;;;;;;5015848;28;20079;-68
2021/04/05 03:48:36;;;;;;;25.08;11.05;;;6.50;93.80;;;;;;5017559;28;20029;-67
2021/04/05 03:51:09;;;;;;;13.07;5.47;;;6.40;94.00;;;;;;5017277;28;20026;-67
2021/04/05 03:53:40;;;;;;;11.48;5.60;;;6.40;94.30;;;;;;5017172;28;20033;-69
2021/04/05 03:56:16;;;;;;;12.65;4.53;;;6.40;94.50;;;;;;5017256;28;20033;-69
2021/04/05 03:58:57;;;;;;;14.35;6.78;;;6.40;94.70;;;;;;5017443;28;20034;-69
2021/04/05 04:01:29;;;;;;;15.07;5.55;;;6.40;94.90;;;;;;5019023;28;20096;-68
2021/04/05 04:04:07;;;;;;;11.32;5.32;;;6.30;95.00;;;;;;5017870;28;20429;-68
2021/04/05 04:06:39;;;;;;;16.10;5.68;;;6.40;95.10;;;;;;5018730;28;20033;-68
2021/04/05 04:09:06;;;;;;;9.43;4.28;;;6.40;95.30;;;;;;5017668;28;20022;-69
2021/04/05 04:11:35;;;;;;;12.35;5.88;;;6.40;95.30;;;;;;5017479;28;20102;-69
2021/04/05 04:14:02;;;;;;;10.73;5.20;;;6.40;95.30;;;;;;5016105;28;20026;-69
2021/04/05 04:16:29;;;;;;;8.70;4.70;;;6.50;95.40;;;;;;5016655;28;20025;-68
2021/04/05 04:18:58;;;;;;;9.38;4.65;;;6.50;95.40;;;;;;5016357;28;20105;-69
2021/04/05 04:21:24;;;;;;;10.85;4.35;;;6.60;95.00;;;;;;5016742;28;20021;-68
2021/04/05 04:23:50;;;;;;;10.25;4.50;;;6.70;94.70;;;;;;5015247;28;20443;-68
2021/04/05 04:26:16;;;;;;;13.30;4.55;;;6.70;94.60;;;;;;5019261;28;20073;-69
2021/04/05 04:28:43;;;;;;;12.63;4.20;;;6.70;94.50;;;;;;5020086;28;20391;-69
2021/04/05 04:31:09;;;;;;;10.43;4.90;;;6.70;94.50;;;;;;5017647;28;20026;-68
2021/04/05 04:33:35;;;;;;;11.00;4.50;;;6.70;94.20;;;;;;5017235;28;20152;-68
2021/04/05 04:36:01;;;;;;;8.97;4.53;;;6.80;94.00;;;;;;5018871;28;20053;-68
2021/04/05 04:38:28;;;;;;;9.23;3.83;;;6.80;94.00;;;;;;5020046;28;20261;-68
2021/04/05 04:40:53;;;;;;;;;;;6.80;94.10;;;;;;5017093;28;20022;-68
2021/04/05 04:43:19;;;;;;;10.10;4.22;;;6.70;94.20;;;;;;5016033;28;19912;-68
2021/04/05 04:45:45;;;;;;;13.47;4.30;;;6.70;94.30;;;;;;5016546;28;20494;-68
2021/04/05 04:48:11;;;;;;;9.38;4.18;;;6.70;94.60;;;;;;5016289;28;20257;-68
2021/04/05 04:50:38;;;;;;;10.80;4.45;;;6.70;94.60;;;;;;5016079;28;20426;-68
2021/04/05 04:53:04;;;;;;;9.02;4.20;;;6.70;94.80;;;;;;5015068;28;20029;-69
2021/04/05 04:55:30;;;;;;;12.07;4.50;;;6.70;94.90;;;;;;5015425;28;20521;-69
2021/04/05 04:58:01;;;;;;;12.55;4.57;;;6.70;95.10;;;;;;5015814;28;20026;-69
2021/04/05 05:00:29;;;;;;;11.75;4.55;;;6.70;95.30;;;;;;5016193;28;20042;-68
2021/04/05 05:02:56;;;;;;;12.27;5.78;;;6.70;95.40;;;;;;5019445;28;20103;-68
2021/04/05 05:05:26;;;;;;;9.88;5.00;;;6.70;95.50;;;;;;5016334;28;20026;-69
2021/04/05 05:07:53;;;;;;;13.88;5.20;;;6.60;95.60;;;;;;5015939;28;20076;-68
2021/04/05 05:10:20;;;;;;;14.40;5.18;;;6.60;95.70;;;;;;5015465;28;20477;-68
2021/04/05 05:12:46;;;;;;;11.48;5.30;;;6.60;95.70;;;;;;5015742;28;20478;-68
2021/04/05 05:15:13;;;;;;;9.67;4.33;;;6.60;95.80;;;;;;5015551;28;20026;-68
2021/04/05 05:17:44;;;;;;;8.65;4.18;;;6.60;95.70;;;;;;5015568;28;20033;-68
2021/04/05 05:20:12;;;;;;;10.63;4.53;;;6.70;96.00;;;;;;5016348;28;20029;-68
2021/04/05 05:22:43;;;;;;;10.45;4.57;;;6.60;95.80;;;;;;5015423;28;20030;-68
2021/04/05 05:25:10;;;;;;;11.80;4.85;;;6.70;95.80;;;;;;5015256;28;20475;-68
2021/04/05 05:27:42;;;;;;;9.10;4.45;;;6.70;95.80;;;;;;5015039;28;20034;-68
2021/04/05 05:30:10;;;;;;;7.82;4.43;;;6.80;95.80;;;;;;5015019;28;20455;-67
2021/04/05 05:32:36;;;;;;;10.68;4.97;;;6.80;95.80;;;;;;5014922;28;20046;-68
2021/04/05 05:35:03;;;;;;;;;;;6.80;95.80;;;;;;5016133;28;20046;-68
2021/04/05 05:37:29;;;;;;;9.77;5.03;;;6.90;95.70;;;;;;5014778;28;20330;-68
2021/04/05 05:39:55;;;;;;;11.93;4.70;;;6.90;95.90;;;;;;5014621;28;20080;-68
2021/04/05 05:42:51;;;;;;;10.97;4.60;;;6.90;95.60;;;;;;5014943;28;20030;-68
2021/04/05 05:45:24;;;;;;;9.98;4.60;;;6.90;95.50;;;;;;5014895;28;20030;-68
2021/04/05 05:48:11;;;;;;;13.32;5.30;;;7.00;95.40;;;;;;5014173;28;20029;-68
2021/04/05 05:50:54;;;;;;;12.43;4.88;;;7.00;95.40;;;;;;5014988;28;20492;-67
2021/04/05 05:53:28;;;;;;;13.10;5.30;;;7.10;95.10;;;;;;5014021;28;20034;-68
2021/04/05 05:56:18;;;;;;;10.05;4.88;;;7.20;95.10;;;;;;5015234;28;20379;-68
2021/04/05 05:58:58;;;;;;;14.35;5.35;;;7.30;95.00;;;;;;5014699;28;20467;-68
2021/04/05 06:01:45;;;;;;;15.63;5.63;;;7.30;94.90;;;;;;5013500;28;20041;-68
2021/04/05 06:04:39;;;;;;;12.63;5.28;;;7.30;95.00;;;;;;5014981;28;20026;-68
2021/04/05 06:07:24;;;;;;;14.18;6.07;;;7.30;95.00;;;;;;5014323;28;20037;-68
2021/04/05 06:10:29;;;;;;;12.57;5.85;;;7.50;94.90;;;;;;5012714;28;20103;-68
2021/04/05 06:13:05;;;;;;;15.40;6.63;;;7.50;94.80;;;;;;4990933;28;20191;-69
2021/04/05 06:15:44;;;;;;;15.55;6.13;;;7.60;94.70;;;;;;5014503;28;20018;-68
2021/04/05 06:18:40;;;;;;;11.88;6.57;;;7.60;94.60;;;;;;5014368;28;20155;-68
2021/04/05 06:21:20;;;;;;;15.18;6.78;;;7.70;94.30;;;;;;5014264;28;20045;-68
2021/04/05 06:23:53;;;;;;;13.63;6.43;;;7.80;93.90;;;;;;5014489;28;20030;-68
2021/04/05 06:26:55;;;;;;;15.52;6.93;;;7.90;93.50;;;;;;5014413;28;20025;-69
2021/04/05 06:29:27;;;;;;;17.30;6.72;;;7.90;93.20;;;;;;5013163;28;20025;-68
2021/04/05 06:32:08;;;;;;;20.52;7.38;;;8.00;93.00;;;;;;5012701;28;20076;-69
2021/04/05 06:34:33;;;;;;;17.08;6.70;;;8.10;93.00;;;;;;5014093;28;20460;-69
2021/04/05 06:37:27;;;;;;;12.50;6.50;;;8.10;92.60;;;;;;5014268;28;20037;-68
2021/04/05 06:40:02;;;;;;;16.73;7.03;;;8.20;92.40;;;;;;5013871;28;20053;-67
2021/04/05 06:42:48;;;;;;;16.20;7.07;;;8.30;92.30;;;;;;5014320;28;20018;-70
2021/04/05 06:45:41;;;;;;;15.10;6.72;;;8.30;92.10;;;;;;5014414;28;20025;-68
2021/04/05 06:48:28;;;;;;;15.77;6.50;;;8.30;92.00;;;;;;5014367;28;20058;-68
2021/04/05 06:51:25;;;;;;;18.00;6.07;;;8.40;91.80;;;;;;5012958;28;20026;-69
2021/04/05 06:54:23;;;;;;;12.88;5.30;;;8.40;91.70;;;;;;5013729;28;20044;-69
2021/04/05 06:56:55;;;;;;;11.63;5.57;;;8.40;91.40;;;;;;5014225;28;20042;-68
2021/04/05 06:59:43;;;;;;;11.52;5.43;;;8.50;90.90;;;;;;5011638;28;20061;-68
2021/04/05 07:02:08;;;;;;;;;;;8.50;90.90;;;;;;5014923;28;20109;-66
2021/04/05 07:04:43;;;;;;;12.27;5.47;;;8.60;90.70;;;;;;5013799;28;19937;-66
2021/04/05 07:07:27;;;;;;;15.25;6.53;;;8.60;90.70;;;;;;5013470;28;20018;-67
2021/04/05 07:10:09;;;;;;;15.15;5.75;;;8.70;90.60;;;;;;5013461;28;20510;-66
2021/04/05 07:12:52;;;;;;;14.32;6.32;;;8.80;90.50;;;;;;5015094;28;20076;-66
2021/04/05 07:15:32;;;;;;;17.08;6.55;;;8.80;90.60;;;;;;5012394;28;20029;-66
2021/04/05 07:18:35;;;;;;;18.65;7.20;;;8.90;90.50;;;;;;5013543;28;20024;-66
2021/04/05 07:21:33;;;;;;;16.73;6.63;;;8.90;90.40;;;;;;5013424;28;20111;-67
2021/04/05 07:24:15;;;;;;;14.05;7.25;;;9.00;90.40;;;;;;5013255;28;20042;-66
2021/04/05 07:26:47;;;;;;;18.95;7.75;;;9.00;90.50;;;;;;5016175;28;20033;-65
2021/04/05 07:29:33;;;;;;;15.50;8.23;;;9.00;90.50;;;;;;5012317;28;20026;-66
2021/04/05 07:32:39;;;;;;;24.25;8.95;;;9.10;90.70;;;;;;5012223;28;20386;-66
2021/04/05 07:35:28;;;;;;;24.02;10.85;;;9.10;90.80;;;;;;5012633;28;20022;-66
2021/04/05 07:38:02;;;;;;;29.40;11.40;;;9.10;91.00;;;;;;5012078;28;20034;-66
2021/04/05 07:41:05;;;;;;;24.88;11.07;;;9.20;91.10;;;;;;5011993;28;20034;-66
2021/04/05 07:43:55;;;;;;;22.23;10.55;;;9.20;91.20;;;;;;5013542;28;20387;-66
2021/04/05 07:46:34;;;;;;;21.98;12.07;;;9.20;91.40;;;;;;5013514;28;20030;-66
2021/04/05 07:49:23;;;;;;;24.70;11.88;;;9.20;91.50;;;;;;5012293;28;20026;-66
2021/04/05 07:52:04;;;;;;;26.83;11.55;;;9.30;91.60;;;;;;5013691;28;20022;-65
2021/04/05 07:54:35;;;;;;;26.25;12.77;;;9.40;91.50;;;;;;5014019;28;20034;-66
2021/04/05 07:57:13;;;;;;;29.42;13.40;;;9.50;91.40;;;;;;5012584;28;20026;-66
2021/04/05 07:59:58;;;;;;;23.02;12.52;;;9.60;91.50;;;;;;5013141;28;20133;-67
2021/04/05 08:02:27;;;;;;;28.85;14.55;;;9.60;91.70;;;;;;5011835;28;20086;-66
2021/04/05 08:05:13;;;;;;;31.80;14.75;;;9.70;91.70;;;;;;5013375;28;20165;-67
2021/04/05 08:08:12;;;;;;;25.13;15.30;;;9.80;91.60;;;;;;5012127;28;20064;-66
2021/04/05 08:11:09;;;;;;;29.15;14.73;;;9.90;91.60;;;;;;5013971;28;20544;-66
2021/04/05 08:13:53;;;;;;;26.75;13.88;;;10.00;91.40;;;;;;5015928;28;20077;-65
2021/04/05 08:16:42;;;;;;;29.05;14.50;;;10.00;91.40;;;;;;5017608;28;20029;-66
2021/04/05 08:19:19;;;;;;;28.20;14.60;;;10.00;91.30;;;;;;5017175;28;20036;-66
2021/04/05 08:22:14;;;;;;;32.45;14.57;;;10.10;91.30;;;;;;5017675;28;20050;-68
2021/04/05 08:24:58;;;;;;;27.38;12.77;;;10.20;91.20;;;;;;5007179;28;20073;-67
2021/04/05 08:27:46;;;;;;;34.25;14.32;;;10.20;91.20;;;;;;5015766;28;20026;-65
2021/04/05 08:30:22;;;;;;;27.23;14.10;;;10.20;91.10;;;;;;5015186;28;20037;-65
2021/04/05 08:33:20;;;;;;;30.17;13.73;;;10.20;90.90;;;;;;5017571;28;20068;-66
2021/04/05 08:35:49;;;;;;;30.05;12.63;;;10.20;90.80;;;;;;5017115;28;20061;-66
2021/04/05 08:38:33;;;;;;;26.25;12.60;;;10.30;90.70;;;;;;5017004;28;20030;-65
2021/04/05 08:41:21;;;;;;;29.80;13.65;;;10.30;90.70;;;;;;5017226;28;20018;-65
2021/04/05 08:44:00;;;;;;;27.85;13.30;;;10.40;90.50;;;;;;5016966;28;20025;-65
2021/04/05 08:46:32;;;;;;;30.58;14.00;;;10.60;90.20;;;;;;5016449;28;20390;-66
2021/04/05 08:49:05;;;;;;;24.42;12.45;;;10.70;89.90;;;;;;5018351;28;20107;-65
2021/04/05 08:51:41;;;;;;;30.42;13.65;;;10.70;89.10;;;;;;5018628;28;20471;-66
2021/04/05 08:54:07;;;;;;;29.92;14.02;;;10.70;88.70;;;;;;5017931;28;20057;-67
2021/04/05 08:57:00;;;;;;;27.67;13.57;;;10.70;88.70;;;;;;5017692;28;20026;-65
2021/04/05 08:59:52;;;;;;;23.67;12.55;;;10.90;88.30;;;;;;5019030;28;20049;-66
2021/04/05 09:02:50;;;;;;;29.52;14.50;;;11.20;87.00;;;;;;5019817;28;20471;-67
2021/04/05 09:05:27;;;;;;;28.70;12.98;;;11.70;85.60;;;;;;5017479;28;20521;-68
2021/04/05 09:08:05;;;;;;;25.35;12.27;;;12.20;83.70;;;;;;5017666;28;20029;-68
2021/04/05 09:10:38;;;;;;;24.17;11.80;;;12.50;82.20;;;;;;5019121;28;20049;-68
2021/04/05 09:13:13;;;;;;;26.23;12.10;;;12.80;80.60;;;;;;5018452;28;20022;-66
2021/04/05 09:15:57;;;;;;;30.88;13.30;;;13.10;78.70;;;;;;5016593;28;20394;-65
2021/04/05 09:19:00;;;;;;;25.30;11.52;;;13.40;77.10;;;;;;5017775;28;20026;-66
2021/04/05 09:22:18;;;;;;;25.15;11.68;;;13.60;76.10;;;;;;5016974;28;20022;-66
2021/04/05 09:24:50;;;;;;;23.55;10.98;;;13.40;74.40;;;;;;4995745;28;20115;-65
2021/04/05 09:27:30;;;;;;;21.30;10.95;;;13.10;74.80;;;;;;5015538;28;20050;-67
2021/04/05 09:30:12;;;;;;;25.40;11.35;;;12.90;74.70;;;;;;5016101;28;20101;-68
2021/04/05 09:32:48;;;;;;;25.23;12.23;;;12.60;75.50;;;;;;5016380;28;20025;-67
2021/04/05 09:35:32;;;;;;;19.50;11.57;;;12.40;75.80;;;;;;5015764;28;20482;-68
2021/04/05 09:38:11;;;;;;;26.92;11.05;;;12.40;76.00;;;;;;5015258;28;20129;-65
2021/04/05 09:41:16;;;;;;;24.30;10.95;;;12.20;76.60;;;;;;5015082;28;20049;-64
2021/04/05 09:44:06;;;;;;;29.42;11.13;;;12.30;76.80;;;;;;5015274;28;20418;-63
2021/04/05 09:47:01;;;;;;;23.38;10.88;;;12.40;75.40;;;;;;5014802;28;20080;-63
2021/04/05 09:50:02;;;;;;;22.75;11.20;;;12.50;75.20;;;;;;5014925;28;20041;-63
2021/04/05 09:52:51;;;;;;;23.27;10.48;;;12.50;74.70;;;;;;5015201;28;20084;-61
2021/04/05 09:55:23;;;;;;;24.73;10.55;;;12.80;73.80;;;;;;5011892;28;20028;-63
2021/04/05 09:58:15;;;;;;;20.95;10.38;;;12.90;72.90;;;;;;5014428;28;20443;-63
2021/04/05 10:00:48;;;;;;;25.98;10.32;;;13.20;72.70;;;;;;5014599;28;20508;-64
2021/04/05 10:03:17;;;;;;;23.85;9.98;;;13.20;72.50;;;;;;5014976;28;20033;-64
2021/04/05 10:05:45;;;;;;;21.08;9.77;;;13.10;72.90;;;;;;5014338;28;20022;-63
2021/04/05 10:08:15;;;;;;;29.77;10.38;;;13.00;73.30;;;;;;5014558;28;20029;-64
2021/04/05 10:10:44;;;;;;;25.38;11.25;;;12.90;73.80;;;;;;5014625;28;20072;-62
2021/04/05 10:13:11;;;;;;;25.85;11.07;;;12.80;74.00;;;;;;5015312;28;20045;-64
2021/04/05 10:15:37;;;;;;;23.27;11.10;;;12.90;74.10;;;;;;5013615;28;20018;-63
2021/04/05 10:18:10;;;;;;;20.05;10.85;;;12.70;74.60;;;;;;5015659;28;20049;-64
2021/04/05 10:20:36;;;;;;;23.45;10.13;;;12.50;75.30;;;;;;5015183;28;20046;-63
2021/04/05 10:23:05;;;;;;;20.67;10.57;;;12.40;76.10;;;;;;5015173;28;20029;-63
2021/04/05 10:25:32;;;;;;;27.00;11.68;;;12.30;77.00;;;;;;5015336;28;20030;-63
2021/04/05 10:28:00;;;;;;;24.35;10.88;;;12.20;77.60;;;;;;5015012;28;20120;-64
2021/04/05 10:30:34;;;;;;;19.60;10.60;;;12.00;78.40;;;;;;5014121;28;20030;-64
2021/04/05 10:33:14;;;;;;;30.02;12.60;;;12.00;79.30;;;;;;5012678;28;20045;-64
2021/04/05 10:35:54;;;;;;;23.77;11.15;;;11.80;80.10;;;;;;5014848;28;20133;-63
2021/04/05 10:38:20;;;;;;;27.35;12.63;;;11.70;81.10;;;;;;5014459;28;20033;-63
2021/04/05 10:40:49;;;;;;;27.23;13.00;;;11.60;82.00;;;;;;5014276;28;20394;-67
2021/04/05 10:43:24;;;;;;;30.88;12.80;;;11.70;83.30;;;;;;5013264;28;20034;-69
2021/04/05 10:46:18;;;;;;;37.53;13.95;;;11.70;82.80;;;;;;5012975;28;20041;-66
2021/04/05 10:48:48;;;;;;;30.83;13.80;;;11.70;84.60;;;;;;5013406;28;20038;-66
2021/04/05 10:51:22;;;;;;;22.58;11.60;;;11.80;84.90;;;;;;5015135;28;20018;-67
2021/04/05 10:53:57;;;;;;;26.15;12.73;;;11.90;82.50;;;;;;5013471;28;20443;-66
2021/04/05 10:56:24;;;;;;;26.75;12.98;;;11.90;84.80;;;;;;5015144;28;20028;-65
2021/04/05 10:58:58;;;;;;;26.70;12.80;;;11.90;82.90;;;;;;5013700;28;20379;-66
2021/04/05 11:01:24;;;;;;;30.17;12.60;;;11.80;83.30;;;;;;5014511;28;20081;-66
2021/04/05 11:03:51;;;;;;;23.88;12.07;;;11.60;83.80;;;;;;5012962;28;20479;-66
2021/04/05 11:06:20;;;;;;;27.67;11.80;;;11.70;84.00;;;;;;5014550;28;20573;-66
2021/04/05 11:08:48;;;;;;;27.95;13.38;;;11.70;83.90;;;;;;5014176;28;20022;-66
2021/04/05 11:11:17;;;;;;;29.48;13.00;;;11.60;83.80;;;;;;5014601;28;20018;-66
2021/04/05 11:13:46;;;;;;;26.38;13.20;;;11.50;83.80;;;;;;5013651;28;20034;-66
2021/04/05 11:16:19;;;;;;;27.83;12.18;;;11.50;83.50;;;;;;5013120;28;20030;-66
2021/04/05 11:19:00;;;;;;;28.98;13.73;;;11.60;83.70;;;;;;5014312;28;20379;-66
2021/04/05 11:21:33;;;;;;;25.20;11.73;;;11.60;83.70;;;;;;5015808;28;20101;-66
2021/04/05 11:24:01;;;;;;;30.23;13.55;;;11.60;83.70;;;;;;5015623;28;20018;-65
2021/04/05 11:26:31;;;;;;;29.08;13.50;;;11.60;83.60;;;;;;5015621;28;20026;-67
2021/04/05 11:29:03;;;;;;;25.25;12.32;;;11.60;83.40;;;;;;5012854;28;20033;-66
2021/04/05 11:31:35;;;;;;;30.20;12.82;;;11.50;83.80;;;;;;5014217;28;20160;-66
2021/04/05 11:34:01;;;;;;;23.10;11.93;;;11.40;83.50;;;;;;5014302;28;20045;-65
2021/04/05 11:36:41;;;;;;;27.48;11.82;;;11.40;83.80;;;;;;5013705;28;20022;-66
2021/04/05 11:39:15;;;;;;;26.40;12.30;;;11.20;84.30;;;;;;5012251;28;20509;-66
2021/04/05 11:41:44;;;;;;;24.60;12.10;;;11.10;84.70;;;;;;5014192;28;20455;-67
2021/04/05 11:44:11;;;;;;;29.08;13.07;;;11.10;84.80;;;;;;5014745;28;20030;-65
2021/04/05 11:46:40;;;;;;;26.95;11.48;;;11.10;85.00;;;;;;5018156;28;20032;-65
2021/04/05 11:49:11;;;;;;;22.95;11.20;;;11.00;85.20;;;;;;5019935;28;20530;-64
2021/04/05 11:51:50;;;;;;;23.65;11.85;;;10.90;85.60;;;;;;5019176;28;20072;-64
2021/04/05 11:54:42;;;;;;;23.17;11.88;;;10.90;85.00;;;;;;5019765;28;20058;-64
2021/04/05 11:57:13;;;;;;;23.55;12.40;;;10.80;85.40;;;;;;5019696;28;20049;-64
2021/04/05 11:59:59;;;;;;;24.77;11.60;;;10.80;85.30;;;;;;5020099;28;20037;-65
2021/04/05 12:02:32;;;;;;;27.25;11.07;;;10.80;85.50;;;;;;5018189;28;20150;-67
2021/04/05 12:05:03;;;;;;;26.88;12.68;;;10.70;85.30;;;;;;5018418;28;20479;-69
2021/04/05 12:07:32;;;;;;;27.55;11.30;;;10.60;85.40;;;;;;5018261;28;20113;-66
2021/04/05 12:10:02;;;;;;;23.23;10.63;;;10.70;85.50;;;;;;5017682;28;20052;-65
2021/04/05 12:13:11;;;;;;;23.58;11.02;;;10.60;85.70;;;;;;5019284;28;20479;-67
2021/04/05 12:15:37;;;;;;;20.88;10.10;;;10.70;85.60;;;;;;5009604;28;20034;-65
2021/04/05 12:18:03;;;;;;;;;;;10.70;85.50;;;;;;5020743;28;20018;-64
2021/04/05 12:20:31;;;;;;;21.90;9.45;;;10.70;85.60;;;;;;5020483;28;19906;-66
2021/04/05 12:23:00;;;;;;;19.48;8.93;;;10.70;85.20;;;;;;5018868;28;20030;-61
2021/04/05 12:25:38;;;;;;;17.60;8.82;;;10.70;85.10;;;;;;5019755;28;20033;-64
2021/04/05 12:28:06;;;;;;;20.70;8.95;;;10.70;85.30;;;;;;5019189;28;20037;-65
2021/04/05 12:30:33;;;;;;;17.77;8.77;;;10.60;85.50;;;;;;5019276;28;20030;-65
2021/04/05 12:33:00;;;;;;;15.82;9.43;;;10.60;85.40;;;;;;5017909;28;20026;-65
2021/04/05 12:35:26;;;;;;;;;;;10.60;85.60;;;;;;5018288;28;20387;-66
2021/04/05 12:38:00;;;;;;;20.15;8.38;;;10.50;85.70;;;;;;5024292;28;19905;-66
2021/04/05 12:40:32;;;;;;;16.55;7.88;;;10.50;85.80;;;;;;5019926;28;20394;-65
2021/04/05 12:43:03;;;;;;;21.95;8.43;;;10.50;85.80;;;;;;5017206;28;20032;-66
2021/04/05 12:45:30;;;;;;;16.02;8.30;;;10.50;86.10;;;;;;5024436;28;20034;-65
2021/04/05 12:47:57;;;;;;;19.17;8.18;;;10.50;86.20;;;;;;5026133;28;20085;-65
2021/04/05 12:50:25;;;;;;;20.02;9.15;;;10.50;86.30;;;;;;5016222;28;20068;-65
2021/04/05 12:52:57;;;;;;;19.13;9.07;;;10.50;86.60;;;;;;5023948;28;20026;-64
2021/04/05 12:55:26;;;;;;;14.20;8.40;;;10.40;86.80;;;;;;5017522;28;20065;-64
2021/04/05 12:57:58;;;;;;;18.13;8.93;;;10.40;87.00;;;;;;5016746;28;20421;-65
2021/04/05 13:00:26;;;;;;;17.13;8.80;;;10.40;87.30;;;;;;5014669;28;20030;-64
2021/04/05 13:03:18;;;;;;;17.25;8.35;;;10.40;87.30;;;;;;5016329;28;20029;-67
2021/04/05 13:05:53;;;;;;;17.33;8.85;;;10.40;87.70;;;;;;5016618;28;20038;-68
2021/04/05 13:08:34;;;;;;;17.90;9.10;;;10.40;88.00;;;;;;5016071;28;20026;-68
2021/04/05 13:11:12;;;;;;;23.58;9.65;;;10.30;88.90;;;;;;5015664;28;20034;-68
2021/04/05 13:13:47;;;;;;;21.98;10.70;;;10.30;91.30;;;;;;5017071;28;20018;-68
2021/04/05 13:16:32;;;;;;;22.05;10.15;;;10.10;92.20;;;;;;5016212;28;20049;-67
2021/04/05 13:19:02;;;;;;;19.52;10.75;;;10.00;93.50;;;;;;5017506;28;20053;-67